createdAt,value
2023-02-22T00:01:38.053Z,100.00
2023-02-22T00:04:06.815Z,100.00
2023-02-22T00:06:39.202Z,100.00
2023-02-22T00:09:06.957Z,100.00
2023-02-22T00:11:35.514Z,100.00
2023-02-22T00:14:02.476Z,100.00
2023-02-22T00:16:30.813Z,100.00
2023-02-22T00:18:57.511Z,100.00
2023-02-22T00:21:23.972Z,100.00
2023-02-22T00:23:50.500Z,100.00
2023-02-22T00:26:20.141Z,100.00
2023-02-22T00:28:48.891Z,100.00
2023-02-22T00:31:16.144Z,100.00
2023-02-22T00:33:43.373Z,100.00
2023-02-22T00:36:12.647Z,100.00
2023-02-22T00:38:40.241Z,100.00
2023-02-22T00:41:07.210Z,100.00
2023-02-22T00:43:34.215Z,100.00
2023-02-22T00:46:01.088Z,100.00
2023-02-22T00:48:28.325Z,100.00
2023-02-22T00:50:57.701Z,100.00
2023-02-22T00:53:25.630Z,100.00
2023-02-22T00:55:53.119Z,100.00
2023-02-22T00:58:20.592Z,100.00
2023-02-22T01:00:47.774Z,100.00
2023-02-22T01:03:18.000Z,100.00
2023-02-22T01:05:45.269Z,100.00
2023-02-22T01:08:14.185Z,100.00
2023-02-22T01:10:41.075Z,100.00
2023-02-22T01:13:09.647Z,100.00
2023-02-22T01:15:39.312Z,100.00
2023-02-22T01:18:06.684Z,100.00
2023-02-22T01:20:33.757Z,100.00
2023-02-22T01:23:03.579Z,100.00
2023-02-22T01:25:31.869Z,100.00
2023-02-22T01:28:00.289Z,100.00
2023-02-22T01:30:30.028Z,100.00
2023-02-22T01:32:56.770Z,100.00
2023-02-22T01:35:27.847Z,100.00
2023-02-22T01:37:54.898Z,100.00
2023-02-22T01:40:28.584Z,100.00
2023-02-22T01:42:59.784Z,100.00
2023-02-22T01:45:35.256Z,100.00
2023-02-22T01:48:08.730Z,100.00
2023-02-22T01:50:44.417Z,100.00
2023-02-22T01:53:14.969Z,100.00
2023-02-22T01:55:42.482Z,100.00
2023-02-22T01:58:10.140Z,100.00
2023-02-22T02:00:36.801Z,100.00
2023-02-22T02:03:09.806Z,100.00
2023-02-22T02:05:37.871Z,100.00
2023-02-22T02:08:28.087Z,100.00
2023-02-22T02:10:56.351Z,100.00
2023-02-22T02:13:22.855Z,100.00
2023-02-22T02:15:52.888Z,100.00
2023-02-22T02:18:19.420Z,100.00
2023-02-22T02:21:10.115Z,100.00
2023-02-22T02:23:55.392Z,100.00
2023-02-22T02:26:30.182Z,100.00
2023-02-22T02:29:27.561Z,100.00
2023-02-22T02:32:06.524Z,100.00
2023-02-22T02:34:58.829Z,100.00
2023-02-22T02:37:40.807Z,100.00
2023-02-22T02:40:11.410Z,100.00
2023-02-22T02:43:01.306Z,100.00
2023-02-22T02:45:47.629Z,100.00
2023-02-22T02:48:17.356Z,100.00
2023-02-22T02:50:58.076Z,100.00
2023-02-22T02:53:37.284Z,100.00
2023-02-22T02:56:04.527Z,100.00
2023-02-22T02:58:31.172Z,100.00
2023-02-22T03:01:01.526Z,100.00
2023-02-22T03:03:37.510Z,100.00
2023-02-22T03:06:03.896Z,100.00
2023-02-22T03:09:04.114Z,100.00
2023-02-22T03:11:42.329Z,100.00
2023-02-22T03:14:41.177Z,100.00
2023-02-22T03:17:23.749Z,100.00
2023-02-22T03:20:04.671Z,100.00
2023-02-22T03:22:48.066Z,100.00
2023-02-22T03:25:16.316Z,100.00
2023-02-22T03:27:46.390Z,100.00
2023-02-22T03:30:25.941Z,100.00
2023-02-22T03:33:10.727Z,100.00
2023-02-22T03:36:15.296Z,100.00
2023-02-22T03:38:44.313Z,100.00
2023-02-22T03:41:24.061Z,100.00
2023-02-22T03:44:05.395Z,100.00
2023-02-22T03:46:41.290Z,100.00
2023-02-22T03:49:25.855Z,100.00
2023-02-22T03:51:52.587Z,100.00
2023-02-22T03:54:19.158Z,100.00
2023-02-22T03:57:00.623Z,100.00
2023-02-22T03:59:28.019Z,100.00
2023-02-22T04:01:55.451Z,100.00
2023-02-22T04:04:21.997Z,100.00
2023-02-22T04:06:48.581Z,100.00
2023-02-22T04:09:15.990Z,100.00
2023-02-22T04:11:42.527Z,100.00
2023-02-22T04:14:09.242Z,100.00
2023-02-22T04:16:35.761Z,100.00
2023-02-22T04:19:02.447Z,100.00
2023-02-22T04:21:28.854Z,100.00
2023-02-22T04:23:55.299Z,100.00
2023-02-22T04:26:21.735Z,100.00
2023-02-22T04:28:48.200Z,100.00
2023-02-22T04:31:15.650Z,100.00
2023-02-22T04:33:42.864Z,100.00
2023-02-22T04:36:10.724Z,100.00
2023-02-22T04:38:37.471Z,100.00
2023-02-22T04:41:03.984Z,100.00
2023-02-22T04:43:30.534Z,100.00
2023-02-22T04:45:57.081Z,100.00
2023-02-22T04:48:23.607Z,100.00
2023-02-22T04:50:51.153Z,100.00
2023-02-22T04:53:17.749Z,100.00
2023-02-22T04:55:44.238Z,100.00
2023-02-22T04:58:10.740Z,100.00
2023-02-22T05:00:37.222Z,100.00
2023-02-22T05:03:04.130Z,100.00
2023-02-22T05:05:30.581Z,100.00
2023-02-22T05:07:57.292Z,100.00
2023-02-22T05:10:24.836Z,100.00
2023-02-22T05:12:51.783Z,100.00
2023-02-22T05:15:20.422Z,100.00
2023-02-22T05:17:47.262Z,100.00
2023-02-22T05:20:22.980Z,100.00
2023-02-22T05:22:49.545Z,100.00
2023-02-22T05:25:16.381Z,100.00
2023-02-22T05:27:42.880Z,100.00
2023-02-22T05:30:11.842Z,100.00
2023-02-22T05:32:38.498Z,100.00
2023-02-22T05:35:06.039Z,100.00
2023-02-22T05:37:32.585Z,100.00
2023-02-22T05:39:59.451Z,100.00
2023-02-22T05:42:25.921Z,100.00
2023-02-22T05:44:52.389Z,100.00
2023-02-22T05:47:28.066Z,100.00
2023-02-22T05:49:54.509Z,100.00
2023-02-22T05:52:21.207Z,100.00
2023-02-22T05:54:47.653Z,100.00
2023-02-22T05:57:14.442Z,100.00
2023-02-22T05:59:41.081Z,100.00
2023-02-22T06:02:08.505Z,100.00
2023-02-22T06:04:35.286Z,100.00
2023-02-22T06:07:01.732Z,100.00
2023-02-22T06:09:28.203Z,100.00
2023-02-22T06:11:55.220Z,100.00
2023-02-22T06:14:21.638Z,100.00
2023-02-22T06:16:56.173Z,100.00
2023-02-22T06:19:23.095Z,100.00
2023-02-22T06:21:53.994Z,100.00
2023-02-22T06:24:21.219Z,100.00
2023-02-22T06:26:54.168Z,100.00
2023-02-22T06:29:20.627Z,100.00
2023-02-22T06:31:47.182Z,100.00
2023-02-22T06:34:13.697Z,100.00
2023-02-22T06:36:40.129Z,100.00
2023-02-22T06:39:06.576Z,100.00
2023-02-22T06:41:37.186Z,100.00
2023-02-22T06:44:03.801Z,100.00
2023-02-22T06:46:30.316Z,100.00
2023-02-22T06:48:59.422Z,100.00
2023-02-22T06:51:27.363Z,100.00
2023-02-22T06:53:53.822Z,100.00
2023-02-22T06:56:20.976Z,100.00
2023-02-22T06:58:49.368Z,100.00
2023-02-22T07:01:16.577Z,100.00
2023-02-22T07:03:43.440Z,100.00
2023-02-22T07:06:10.770Z,100.00
2023-02-22T07:08:37.357Z,100.00
2023-02-22T07:11:04.008Z,100.00
2023-02-22T07:13:30.459Z,100.00
2023-02-22T07:15:56.949Z,100.00
2023-02-22T07:18:24.141Z,100.00
2023-02-22T07:20:50.852Z,100.00
2023-02-22T07:23:17.809Z,100.00
2023-02-22T07:25:44.527Z,100.00
2023-02-22T07:28:11.628Z,100.00
2023-02-22T07:30:38.317Z,100.00
2023-02-22T07:33:10.545Z,100.00
2023-02-22T07:35:46.536Z,100.00
2023-02-22T07:38:15.224Z,100.00
2023-02-22T07:40:42.548Z,100.00
2023-02-22T07:43:21.382Z,100.00
2023-02-22T07:45:50.031Z,100.00
2023-02-22T07:48:18.353Z,100.00
2023-02-22T07:50:45.061Z,100.00
2023-02-22T07:53:33.150Z,100.00
2023-02-22T07:56:01.944Z,100.00
2023-02-22T07:58:32.254Z,100.00
2023-02-22T08:00:59.489Z,100.00
2023-02-22T08:03:26.989Z,100.00
2023-02-22T08:05:55.885Z,100.00
2023-02-22T08:08:23.572Z,100.00
2023-02-22T08:10:51.381Z,100.00
2023-02-22T08:13:19.041Z,100.00
2023-02-22T08:15:47.210Z,100.00
2023-02-22T08:18:16.621Z,100.00
2023-02-22T08:20:44.729Z,100.00
2023-02-22T08:23:14.478Z,100.00
2023-02-22T08:25:41.383Z,100.00
2023-02-22T08:28:11.982Z,100.00
2023-02-22T08:30:40.664Z,100.00
2023-02-22T08:33:07.559Z,100.00
2023-02-22T08:35:34.431Z,100.00
2023-02-22T08:38:03.783Z,100.00
2023-02-22T08:40:33.493Z,100.00
2023-02-22T08:43:01.606Z,100.00
2023-02-22T08:45:28.686Z,100.00
2023-02-22T08:47:55.371Z,100.00
2023-02-22T08:50:27.772Z,100.00
2023-02-22T08:52:58.612Z,100.00
2023-02-22T08:55:27.268Z,100.00
2023-02-22T08:57:53.702Z,100.00
2023-02-22T09:00:24.653Z,100.00
2023-02-22T09:02:52.511Z,100.00
2023-02-22T09:05:19.229Z,100.00
2023-02-22T09:07:46.073Z,100.00
2023-02-22T09:10:24.452Z,100.00
2023-02-22T09:12:58.051Z,100.00
2023-02-22T09:15:25.965Z,100.00
2023-02-22T09:17:53.683Z,100.00
2023-02-22T09:20:21.999Z,100.00
2023-02-22T09:22:49.530Z,100.00
2023-02-22T09:25:17.711Z,100.00
2023-02-22T09:27:47.915Z,100.00
2023-02-22T09:30:20.778Z,100.00
2023-02-22T09:32:47.395Z,100.00
2023-02-22T09:35:14.311Z,100.00
2023-02-22T09:37:44.552Z,100.00
2023-02-22T09:40:25.134Z,100.00
2023-02-22T09:43:27.728Z,100.00
2023-02-22T09:46:02.735Z,100.00
2023-02-22T09:48:33.923Z,100.00
2023-02-22T09:51:03.258Z,100.00
2023-02-22T09:53:41.674Z,100.00
2023-02-22T09:56:14.544Z,100.00
2023-02-22T09:58:54.817Z,100.00
2023-02-22T10:01:44.928Z,100.00
2023-02-22T10:04:47.500Z,100.00
2023-02-22T10:07:34.488Z,100.00
2023-02-22T10:10:06.332Z,100.00
2023-02-22T10:12:44.916Z,100.00
2023-02-22T10:15:23.699Z,100.00
2023-02-22T10:18:03.432Z,100.00
2023-02-22T10:20:54.015Z,100.00
2023-02-22T10:23:51.796Z,100.00
2023-02-22T10:26:28.233Z,100.00
2023-02-22T10:29:07.120Z,100.00
2023-02-22T10:31:40.640Z,100.00
2023-02-22T10:34:33.576Z,100.00
2023-02-22T10:37:21.017Z,100.00
2023-02-22T10:39:48.838Z,100.00
2023-02-22T10:42:15.829Z,100.00
2023-02-22T10:44:42.462Z,100.00
2023-02-22T10:47:16.600Z,100.00
2023-02-22T10:49:48.951Z,100.00
2023-02-22T10:52:26.143Z,100.00
2023-02-22T10:55:01.036Z,100.00
2023-02-22T10:57:36.400Z,100.00
2023-02-22T11:00:26.149Z,100.00
2023-02-22T11:03:00.383Z,100.00
2023-02-22T11:05:41.275Z,100.00
2023-02-22T11:08:15.962Z,100.00
2023-02-22T11:10:45.961Z,100.00
2023-02-22T11:13:26.467Z,100.00
2023-02-22T11:16:00.231Z,100.00
2023-02-22T11:18:35.915Z,100.00
2023-02-22T11:21:10.200Z,100.00
2023-02-22T11:23:39.010Z,100.00
2023-02-22T11:26:14.541Z,100.00
2023-02-22T11:28:49.321Z,100.00
2023-02-22T11:31:22.509Z,100.00
2023-02-22T11:36:37.909Z,100.00
2023-02-22T11:39:11.404Z,100.00
2023-02-22T11:41:38.078Z,100.00
2023-02-22T11:44:32.477Z,100.00
2023-02-22T11:47:06.852Z,100.00
2023-02-22T11:49:38.185Z,100.00
2023-02-22T11:52:22.940Z,100.00
2023-02-22T11:55:07.952Z,100.00
2023-02-22T11:57:46.446Z,100.00
2023-02-22T12:00:16.338Z,100.00
2023-02-22T12:03:04.638Z,100.00
2023-02-22T12:05:40.638Z,100.00
2023-02-22T12:08:19.632Z,100.00
2023-02-22T12:11:06.333Z,100.00
2023-02-22T12:13:58.516Z,100.00
2023-02-22T12:16:46.717Z,100.00
2023-02-22T12:19:30.839Z,100.00
2023-02-22T12:22:03.069Z,100.00
2023-02-22T12:24:45.258Z,100.00
2023-02-22T12:27:18.862Z,100.00
2023-02-22T12:29:51.099Z,100.00
2023-02-22T12:32:38.089Z,100.00
2023-02-22T12:35:23.431Z,100.00
2023-02-22T12:38:12.343Z,100.00
2023-02-22T12:40:58.005Z,100.00
2023-02-22T12:43:34.610Z,99.22
2023-02-22T12:46:11.418Z,92.86
2023-02-22T12:48:47.626Z,100.00
2023-02-22T12:51:43.007Z,84.09
2023-02-22T12:54:21.284Z,76.59
2023-02-22T12:56:54.596Z,92.56
2023-02-22T12:59:29.375Z,79.42
2023-02-22T13:02:01.406Z,83.33
2023-02-22T13:04:31.788Z,70.46
2023-02-22T13:07:18.600Z,64.59
2023-02-22T13:10:14.432Z,53.11
2023-02-22T13:12:52.296Z,50.95
2023-02-22T13:15:31.209Z,57.08
2023-02-22T13:18:06.861Z,51.98
2023-02-22T13:20:42.267Z,49.25
2023-02-22T13:23:30.213Z,47.91
2023-02-22T13:26:29.033Z,50.22
2023-02-22T13:29:03.059Z,56.10
2023-02-22T13:31:40.880Z,51.55
2023-02-22T13:34:36.938Z,52.90
2023-02-22T13:37:17.724Z,55.29
2023-02-22T13:40:48.887Z,52.73
2023-02-22T13:43:52.930Z,50.74
2023-02-22T13:46:25.475Z,49.22
2023-02-22T13:48:54.902Z,49.80
2023-02-22T13:51:42.769Z,53.61
2023-02-22T13:54:16.141Z,53.71
2023-02-22T13:56:45.416Z,55.44
2023-02-22T13:59:35.986Z,56.43
2023-02-22T14:02:05.514Z,60.33
2023-02-22T14:04:38.192Z,62.25
2023-02-22T14:07:29.688Z,64.67
2023-02-22T14:09:59.137Z,66.20
2023-02-22T14:12:34.757Z,67.69
2023-02-22T14:15:26.511Z,64.75
2023-02-22T14:18:04.997Z,66.22
2023-02-22T14:20:40.138Z,70.27
2023-02-22T14:23:31.379Z,73.03
2023-02-22T14:26:17.763Z,73.37
2023-02-22T14:29:02.837Z,72.61
2023-02-22T14:31:38.031Z,73.50
2023-02-22T14:34:11.699Z,71.16
2023-02-22T14:37:13.952Z,71.63
2023-02-22T14:39:50.955Z,69.97
2023-02-22T14:42:28.769Z,66.31
2023-02-22T14:45:27.382Z,60.50
2023-02-22T14:48:25.019Z,62.32
2023-02-22T14:50:57.229Z,65.02
2023-02-22T14:54:01.979Z,67.01
2023-02-22T14:56:41.018Z,67.47
2023-02-22T14:59:17.551Z,69.13
2023-02-22T15:01:58.707Z,69.80
2023-02-22T15:04:32.747Z,72.07
2023-02-22T15:07:07.692Z,73.75
2023-02-22T15:09:37.499Z,71.73
2023-02-22T15:12:04.049Z,75.20
2023-02-22T15:14:39.078Z,77.20
2023-02-22T15:17:17.168Z,78.10
2023-02-22T15:19:44.008Z,78.78
2023-02-22T15:22:25.306Z,78.58
2023-02-22T15:25:05.148Z,79.29
2023-02-22T15:27:36.857Z,82.77
2023-02-22T15:30:20.139Z,83.18
2023-02-22T15:33:02.636Z,84.58
2023-02-22T15:35:33.380Z,85.70
2023-02-22T15:38:12.175Z,86.88
2023-02-22T15:40:43.103Z,88.63
2023-02-22T15:43:24.883Z,90.57
2023-02-22T15:45:52.105Z,91.05
2023-02-22T15:48:19.221Z,92.82
2023-02-22T15:51:07.273Z,93.92
2023-02-22T15:53:43.821Z,94.36
2023-02-22T15:56:39.581Z,96.46
2023-02-22T15:59:13.576Z,98.46
2023-02-22T16:01:43.446Z,98.81
2023-02-22T16:04:24.494Z,100.00
2023-02-22T16:07:01.006Z,100.00
2023-02-22T16:09:30.266Z,100.00
2023-02-22T16:12:21.921Z,100.00
2023-02-22T16:14:49.041Z,100.00
2023-02-22T16:17:24.739Z,100.00
2023-02-22T16:19:52.566Z,100.00
2023-02-22T16:22:28.009Z,100.00
2023-02-22T16:25:16.207Z,100.00
2023-02-22T16:27:47.780Z,100.00
2023-02-22T16:30:29.439Z,100.00
2023-02-22T16:32:57.320Z,100.00
2023-02-22T16:35:32.611Z,100.00
2023-02-22T16:38:04.919Z,100.00
2023-02-22T16:40:36.188Z,100.00
2023-02-22T16:43:06.491Z,100.00
2023-02-22T16:45:33.101Z,100.00
2023-02-22T16:48:00.409Z,100.00
2023-02-22T16:50:27.067Z,100.00
2023-02-22T16:52:55.690Z,100.00
2023-02-22T16:55:22.642Z,100.00
2023-02-22T16:57:50.513Z,100.00
2023-02-22T17:00:31.002Z,100.00
2023-02-22T17:03:05.525Z,100.00
2023-02-22T17:05:36.229Z,100.00
2023-02-22T17:08:04.208Z,100.00
2023-02-22T17:10:30.777Z,100.00
2023-02-22T17:12:58.529Z,100.00
2023-02-22T17:15:28.154Z,100.00
2023-02-22T17:17:56.251Z,100.00
2023-02-22T17:20:32.708Z,100.00
2023-02-22T17:23:05.008Z,100.00
2023-02-22T17:25:41.942Z,100.00
2023-02-22T17:28:09.132Z,100.00
2023-02-22T17:30:36.625Z,100.00
2023-02-22T17:33:06.446Z,100.00
2023-02-22T17:35:37.185Z,100.00
2023-02-22T17:38:06.142Z,100.00
2023-02-22T17:40:35.083Z,100.00
2023-02-22T17:43:01.901Z,100.00
2023-02-22T17:45:29.947Z,100.00
2023-02-22T17:47:59.035Z,100.00
2023-02-22T17:50:27.005Z,100.00
2023-02-22T17:52:53.831Z,100.00
2023-02-22T17:55:21.445Z,100.00
2023-02-22T17:57:53.131Z,100.00
2023-02-22T18:00:23.574Z,100.00
2023-02-22T18:02:51.493Z,100.00
2023-02-22T18:05:19.039Z,100.00
2023-02-22T18:07:46.914Z,100.00
2023-02-22T18:10:13.735Z,100.00
2023-02-22T18:12:41.418Z,100.00
2023-02-22T18:15:10.763Z,100.00
2023-02-22T18:17:38.102Z,100.00
2023-02-22T18:20:11.631Z,100.00
2023-02-22T18:22:42.091Z,100.00
2023-02-22T18:25:10.647Z,100.00
2023-02-22T18:27:37.595Z,100.00
2023-02-22T18:30:05.985Z,100.00
2023-02-22T18:32:33.534Z,100.00
2023-02-22T18:35:00.677Z,100.00
2023-02-22T18:37:29.944Z,100.00
2023-02-22T18:39:57.759Z,100.00
2023-02-22T18:42:28.497Z,100.00
2023-02-22T18:45:00.579Z,100.00
2023-02-22T18:47:27.420Z,100.00
2023-02-22T18:49:54.165Z,100.00
2023-02-22T18:52:21.075Z,100.00
2023-02-22T18:54:49.924Z,100.00
2023-02-22T18:57:16.991Z,100.00
2023-02-22T18:59:44.038Z,100.00
2023-02-22T19:02:14.053Z,100.00
2023-02-22T19:04:40.942Z,100.00
2023-02-22T19:07:07.402Z,100.00
2023-02-22T19:09:33.873Z,100.00
2023-02-22T19:12:00.411Z,100.00
2023-02-22T19:14:26.906Z,100.00
2023-02-22T19:16:56.473Z,100.00
2023-02-22T19:19:26.070Z,100.00
2023-02-22T19:21:53.098Z,100.00
2023-02-22T19:24:20.400Z,100.00
2023-02-22T19:26:57.228Z,100.00
2023-02-22T19:29:23.947Z,100.00
2023-02-22T19:31:51.682Z,100.00
2023-02-22T19:34:21.802Z,100.00
2023-02-22T19:36:49.008Z,100.00
2023-02-22T19:39:17.532Z,100.00
2023-02-22T19:41:44.292Z,100.00
2023-02-22T19:44:12.171Z,100.00
2023-02-22T19:46:39.573Z,100.00
2023-02-22T19:49:07.286Z,100.00
2023-02-22T19:51:34.251Z,100.00
2023-02-22T19:54:06.506Z,100.00
2023-02-22T19:56:35.486Z,100.00
2023-02-22T19:59:13.365Z,100.00
2023-02-22T20:01:41.303Z,100.00
2023-02-22T20:04:10.445Z,100.00
2023-02-22T20:06:42.486Z,100.00
2023-02-22T20:09:12.867Z,100.00
2023-02-22T20:11:39.439Z,100.00
2023-02-22T20:14:06.416Z,100.00
2023-02-22T20:16:34.638Z,100.00
2023-02-22T20:19:01.298Z,100.00
2023-02-22T20:21:32.593Z,100.00
2023-02-22T20:24:03.145Z,100.00
2023-02-22T20:26:32.174Z,100.00
2023-02-22T20:28:59.541Z,100.00
2023-02-22T20:31:26.987Z,100.00
2023-02-22T20:33:55.640Z,100.00
2023-02-22T20:36:22.484Z,100.00
2023-02-22T20:38:53.918Z,100.00
2023-02-22T20:41:29.381Z,100.00
2023-02-22T20:43:56.865Z,100.00
2023-02-22T20:46:24.932Z,100.00
2023-02-22T20:48:55.955Z,100.00
2023-02-22T20:51:23.291Z,100.00
2023-02-22T20:53:50.207Z,100.00
2023-02-22T20:56:24.154Z,100.00
2023-02-22T20:58:51.084Z,100.00
2023-02-22T21:01:20.177Z,100.00
2023-02-22T21:03:46.985Z,100.00
2023-02-22T21:06:15.835Z,100.00
2023-02-22T21:08:49.259Z,100.00
2023-02-22T21:11:17.733Z,100.00
2023-02-22T21:13:44.388Z,100.00
2023-02-22T21:16:18.718Z,100.00
2023-02-22T21:18:45.406Z,100.00
2023-02-22T21:21:12.554Z,100.00
2023-02-22T21:23:40.546Z,100.00
2023-02-22T21:26:13.324Z,100.00
2023-02-22T21:28:50.818Z,100.00
2023-02-22T21:31:18.867Z,100.00
2023-02-22T21:33:49.339Z,100.00
2023-02-22T21:36:16.311Z,100.00
2023-02-22T21:38:45.253Z,100.00
2023-02-22T21:41:13.029Z,100.00
2023-02-22T21:43:40.081Z,100.00
2023-02-22T21:46:10.585Z,100.00
2023-02-22T21:48:45.097Z,100.00
2023-02-22T21:51:14.083Z,100.00
2023-02-22T21:53:48.510Z,100.00
2023-02-22T21:56:18.886Z,100.00
2023-02-22T21:58:47.071Z,100.00
2023-02-22T22:01:17.390Z,100.00
2023-02-22T22:03:46.048Z,100.00
2023-02-22T22:06:14.045Z,100.00
2023-02-22T22:08:42.850Z,100.00
2023-02-22T22:11:11.213Z,100.00
2023-02-22T22:13:40.387Z,100.00
2023-02-22T22:16:12.197Z,100.00
2023-02-22T22:18:40.030Z,100.00
2023-02-22T22:21:22.676Z,100.00
2023-02-22T22:23:50.744Z,100.00
2023-02-22T22:26:19.944Z,100.00
2023-02-22T22:28:52.592Z,100.00
2023-02-22T22:31:21.446Z,100.00
2023-02-22T22:33:48.175Z,100.00
2023-02-22T22:36:17.095Z,100.00
2023-02-22T22:38:47.101Z,100.00
2023-02-22T22:41:16.638Z,100.00
2023-02-22T22:43:46.237Z,100.00
2023-02-22T22:46:15.376Z,100.00
2023-02-22T22:48:42.897Z,100.00
2023-02-22T22:51:12.478Z,100.00
2023-02-22T22:53:43.407Z,100.00
2023-02-22T22:56:25.941Z,100.00
2023-02-22T22:58:55.337Z,100.00
2023-02-22T23:01:27.922Z,100.00
2023-02-22T23:04:02.094Z,100.00
2023-02-22T23:06:32.947Z,100.00
2023-02-22T23:09:01.532Z,100.00
2023-02-22T23:11:30.147Z,100.00
2023-02-22T23:13:56.736Z,100.00
2023-02-22T23:16:24.273Z,100.00
2023-02-22T23:18:51.438Z,100.00
2023-02-22T23:21:19.791Z,100.00
2023-02-22T23:23:51.498Z,100.00
2023-02-22T23:26:18.176Z,100.00
2023-02-22T23:28:47.138Z,100.00
2023-02-22T23:31:16.971Z,100.00
2023-02-22T23:33:48.134Z,100.00
2023-02-22T23:36:16.511Z,100.00
2023-02-22T23:38:43.779Z,100.00
2023-02-22T23:41:12.933Z,100.00
2023-02-22T23:43:40.681Z,100.00
2023-02-22T23:46:12.989Z,100.00
2023-02-22T23:48:46.682Z,100.00
2023-02-22T23:51:16.163Z,100.00
2023-02-22T23:53:55.461Z,100.00
2023-02-22T23:56:28.511Z,100.00
2023-02-22T23:58:57.442Z,100.00
